Date,TemperatureHighF,TemperatureAvgF,TemperatureLowF,DewpointHighF,DewpointAvgF,DewpointLowF,HumidityHigh,HumidityAvg,HumidityLow,PressureMaxIn,PressureMinIn,WindSpeedMaxMPH,WindSpeedAvgMPH,GustSpeedMaxMPH,PrecipitationSumIn
2013-1-1,32.9,25.8,19.9,18.1,13.0,7.5,64,58,53,29.79,29.69,8,3,12,0.00
2013-1-2,33.3,21.9,15.3,18.3,8.5,-0.5,67,56,44,29.83,29.76,8,3,12,0.00
2013-1-3,32.4,25.7,15.4,22.5,14.6,0.1,74,63,49,29.85,29.72,16,5,21,0.01
2013-1-4,35.1,25.7,16.9,19.9,14.2,5.4,70,62,46,29.87,29.75,13,5,21,0.00
2013-1-5,39.4,29.3,19.4,28.8,20.4,12.8,84,70,49,29.88,29.64,8,3,14,0.00
2013-1-6,35.4,33.7,30.9,28.6,25.2,20.9,78,71,58,29.94,29.54,14,6,24,0.01
2013-1-7,37.0,28.8,19.0,22.6,18.0,11.2,77,64,45,29.99,29.76,9,4,19,0.00
2013-1-8,41.9,33.2,25.7,26.1,21.8,17.3,72,63,52,29.84,29.73,7,3,15,0.00
2013-1-9,140.0,44.2,37.0,99.9,31.8,25.2,66,64,49,29.92,29.67,8,6,15,0.01
2013-1-10,43.3,39.8,37.4,34.4,29.0,25.2,87,66,52,29.92,29.67,14,6,20,0.13
2013-1-11,55.2,48.8,38.1,49.4,44.1,34.9,91,84,77,29.67,29.37,9,4,18,0.27
2013-1-12,58.3,49.6,38.1,46.6,41.1,33.0,87,73,63,29.64,29.43,10,4,18,0.12
2013-1-13,38.1,32.1,23.0,34.6,27.0,13.9,87,81,66,29.82,29.49,8,2,15,0.08
2013-1-14,25.3,22.3,17.2,14.6,12.3,8.1,71,65,56,30.09,29.82,0,0,0,0.00
2013-1-15,36.1,22.9,13.3,20.8,11.6,6.3,76,62,44,30.06,29.79,4,0,8,0.00
2013-1-16,37.4,27.6,16.7,25.3,15.2,9.0,78,61,37,29.80,29.49,15,4,23,0.00
2013-1-17,36.3,30.0,24.3,26.6,14.7,7.0,68,53,43,30.01,29.67,14,6,23,0.00
2013-1-18,39.2,38.8,38.3,24.7,24.2,22.9,56,55,53,29.91,29.87,11,8,19,0.00
2013-1-19,49.8,42.4,37.4,33.4,29.0,24.4,65,59,48,29.87,29.62,24,7,38,0.00
2013-1-20,41.0,21.1,17.1,27.8,5.6,0.0,61,51,41,30.17,29.65,28,10,41,0.01
2013-1-21,19.9,13.4,8.6,5.1,1.1,-4.4,69,58,43,30.09,29.97,16,9,25,0.00
2013-1-22,12.6,8.8,5.5,3.4,-1.7,-5.6,67,61,54,30.23,30.08,11,6,17,0.04
2013-1-23,20.1,15.0,10.4,14.1,2.9,-4.9,77,59,43,30.19,29.97,11,4,21,0.00
2013-1-24,21.2,15.0,8.1,9.6,1.7,-7.7,73,56,30,30.51,30.09,5,1,11,0.00
2013-1-25,26.4,20.9,15.6,18.8,8.9,-2.6,76,60,43,30.31,29.88,11,3,16,0.00
2013-1-26,32.7,25.9,20.1,19.4,13.4,9.6,68,59,52,30.32,29.96,9,2,17,0.01
2013-1-27,34.2,27.6,18.9,29.3,17.4,9.1,82,65,55,30.32,29.90,8,2,14,0.00
2013-1-28,48.6,40.9,34.2,46.1,38.1,29.3,93,89,82,29.92,29.75,11,3,20,0.08
2013-1-29,59.7,54.2,37.4,55.1,51.1,35.3,93,89,79,29.84,29.32,11,4,24,0.61
2013-1-30,52.7,41.5,26.1,50.2,38.3,19.3,94,88,74,29.41,29.06,23,5,30,0.48
2013-1-31,26.1,18.4,12.9,19.3,9.1,2.3,81,67,53,29.92,29.41,22,11,30,0.00
2013-2-1,13.6,11.3,8.4,7.0,1.7,-4.5,74,65,51,30.22,29.92,14,5,21,0.00
2013-2-2,26.2,18.3,12.0,19.6,10.9,1.9,79,72,63,30.10,29.87,5,2,11,0.00
2013-2-3,23.0,18.7,13.1,14.6,8.9,4.8,76,65,54,29.93,29.82,14,5,21,0.00
2013-2-4,30.9,23.2,19.8,19.8,15.5,11.1,79,72,61,29.93,29.75,11,2,13,0.09
2013-2-5,34.0,24.8,15.1,26.0,17.7,8.4,86,74,63,29.92,29.70,10,3,17,0.00
2013-2-6,42.8,31.1,19.6,20.4,16.7,11.5,72,56,33,30.15,29.92,6,2,13,0.00
2013-2-7,43.9,33.8,28.9,30.0,24.6,20.6,87,69,52,30.07,29.73,6,2,12,0.33
2013-2-8,36.0,31.9,27.7,29.8,22.7,17.0,88,69,54,30.27,29.74,8,2,16,0.02
2013-2-9,40.1,27.8,14.5,21.9,15.9,7.5,76,61,44,30.30,30.06,8,2,17,0.01
2013-2-10,47.1,37.8,28.6,43.2,29.1,18.1,89,71,60,30.06,29.47,10,4,17,0.11
2013-2-11,49.1,36.5,30.7,43.6,24.7,18.5,85,62,55,29.88,29.46,22,11,34,0.01
2013-2-12,30.9,29.0,27.9,20.3,18.8,16.2,68,65,61,29.99,29.85,14,6,26,0.00
2013-2-13,47.5,33.7,22.1,29.7,22.3,15.4,78,64,48,29.85,29.62,6,2,12,0.00
2013-2-14,42.3,36.5,30.7,32.1,26.5,19.1,79,67,54,29.85,29.58,19,6,27,0.00
2013-2-15,33.8,27.8,21.2,24.6,16.5,8.2,83,63,45,30.06,29.84,11,3,18,0.01
2013-2-16,25.7,20.0,15.3,15.8,7.3,-1.0,75,58,41,30.03,29.97,15,6,22,0.00
2013-2-17,23.0,19.5,15.4,9.4,5.7,-1.1,70,55,35,30.05,30.00,13,2,19,0.02
2013-2-18,52.9,39.1,22.8,42.8,24.7,6.7,85,57,43,30.01,29.33,12,5,24,0.18
2013-2-19,45.3,21.7,16.0,40.5,13.4,5.5,85,70,62,29.97,29.33,17,11,28,0.14
2013-2-20,23.7,19.9,16.0,15.3,10.6,5.8,74,66,57,30.22,29.97,15,7,22,0.00
2013-2-21,28.0,24.6,21.2,15.0,13.2,11.6,71,62,52,30.26,29.97,12,4,21,0.00
2013-2-22,34.5,28.1,21.7,29.4,20.8,11.4,82,74,60,29.98,29.73,12,5,24,0.01
2013-2-23,31.6,27.8,26.1,20.4,16.4,12.2,70,62,50,29.85,29.79,14,5,20,0.00
2013-2-24,38.3,30.1,21.9,24.0,18.5,14.4,76,62,51,30.06,29.83,11,4,14,0.00
2013-2-25,45.1,31.9,18.0,24.1,18.6,10.8,78,60,38,30.10,29.93,5,2,11,0.00
2013-2-26,36.5,33.0,31.3,29.4,24.1,18.7,86,70,50,29.94,29.38,14,6,22,0.26
2013-2-27,38.3,34.0,32.5,32.3,29.6,28.8,86,84,74,29.53,29.37,5,1,8,0.30
2013-2-28,40.3,34.6,31.6,30.4,27.4,23.5,87,75,64,29.90,29.52,10,3,17,0.01
2013-3-1,39.7,31.2,25.7,23.9,19.9,13.2,76,63,46,30.05,29.89,10,2,16,0.00
2013-3-2,34.0,28.0,22.6,18.7,15.0,9.6,66,58,46,30.05,29.99,9,3,19,0.00
2013-3-3,36.0,27.3,21.2,17.4,11.7,7.3,64,52,34,30.01,29.96,12,3,18,0.00
2013-3-4,37.8,27.8,15.1,16.9,12.0,7.3,75,53,30,30.05,29.93,7,2,11,0.00
2013-3-5,32.4,30.1,26.8,25.5,21.2,16.8,86,70,54,29.97,29.69,9,5,17,0.00
2013-3-6,41.0,32.5,26.4,28.6,25.5,21.6,86,76,57,30.16,29.80,8,4,14,0.05
2013-3-7,41.5,33.2,22.5,28.7,24.8,16.7,84,71,53,30.32,30.15,10,2,15,0.00
2013-3-8,50.5,31.3,14.9,24.5,16.9,8.2,79,58,29,30.40,30.27,8,1,14,0.00
2013-3-9,45.0,37.1,26.8,30.9,24.2,15.9,66,60,45,30.27,29.83,9,4,17,0.00
2013-3-10,56.5,46.1,40.1,41.0,34.9,29.9,86,66,53,29.83,29.67,7,2,20,0.25
2013-3-11,37.0,35.4,34.2,31.6,30.0,27.7,82,81,77,30.06,29.92,11,7,21,0.23
2013-3-12,38.8,33.1,29.7,28.6,24.9,17.7,85,72,49,30.25,30.06,17,7,24,0.00
2013-3-13,33.6,27.8,24.6,24.7,14.9,7.3,85,59,41,30.60,30.25,15,8,31,0.00
2013-3-14,42.6,32.7,22.5,25.2,15.9,7.5,74,50,36,30.60,30.42,9,3,14,0.00
2013-3-15,46.0,36.2,30.4,33.6,29.3,25.2,86,76,57,30.42,30.11,8,2,11,0.02
2013-3-16,36.7,33.7,29.1,32.3,26.6,18.3,84,75,63,30.40,29.99,8,4,18,0.01
2013-3-17,39.7,32.7,28.6,20.9,17.4,14.1,66,53,41,30.52,30.37,10,4,19,0.00
2013-3-18,35.1,31.1,27.1,30.4,23.5,14.0,84,73,55,30.37,29.90,17,6,34,0.09
2013-3-19,33.6,26.7,20.8,14.9,11.5,8.8,64,52,40,30.33,30.04,22,13,34,0.01
2013-3-20,29.3,22.3,18.5,13.4,7.7,3.7,71,53,46,30.34,30.29,17,9,24,0.00
2013-3-21,32.0,24.2,18.5,16.2,12.1,5.0,78,60,47,30.33,30.24,13,6,21,0.00
2013-3-22,38.7,28.9,16.5,18.6,13.6,7.1,70,53,39,30.37,30.31,11,3,13,0.00
2013-3-23,42.6,34.2,21.6,24.1,20.2,14.6,77,57,44,30.44,30.32,6,3,11,0.00
2013-3-24,38.5,32.2,25.0,23.7,20.0,15.6,71,61,50,30.33,29.93,12,5,19,0.00
2013-3-25,39.9,33.6,30.6,27.0,22.0,18.9,67,62,54,30.31,29.94,10,5,18,0.00
2013-3-26,41.7,34.9,32.2,29.7,26.1,23.3,83,70,59,30.52,30.31,13,4,18,0.02
2013-3-27,45.3,37.2,29.1,30.3,23.8,14.2,83,61,29,30.60,30.52,13,4,21,0.00
2013-3-28,48.4,37.3,27.3,29.0,20.4,13.1,76,53,26,30.64,30.59,11,3,17,0.00
2013-3-29,52.9,38.0,23.5,30.8,16.8,9.6,78,46,22,30.63,30.55,13,2,19,0.00
2013-3-30,60.3,43.3,22.6,32.4,22.5,11.6,72,46,23,30.56,30.21,10,2,20,0.00
2013-3-31,56.5,47.3,37.8,42.1,35.3,25.9,90,64,44,30.21,30.00,17,6,27,0.06
2013-4-1,37.6,33.2,24.6,29.0,14.0,5.7,72,46,29,30.45,30.14,16,5,32,0.00
2013-4-2,41.9,33.1,23.0,15.8,10.4,2.1,64,40,23,30.59,30.44,14,4,24,0.00
2013-4-3,46.2,31.7,21.7,19.7,11.4,7.1,66,46,21,30.74,30.59,10,3,16,0.00
2013-4-4,57.6,43.2,27.1,53.9,17.2,11.6,97,37,21,30.57,30.27,10,2,14,0.00
2013-4-5,48.0,38.8,30.4,30.8,24.9,18.6,74,58,33,30.51,30.26,11,3,17,0.00
2013-4-6,68.5,50.1,30.9,43.4,27.6,20.8,74,44,24,30.48,29.98,12,5,24,0.00
2013-4-7,63.5,56.1,47.7,47.0,44.2,39.4,83,66,41,30.07,29.94,17,8,27,0.04
2013-4-8,52.0,46.8,39.9,42.5,39.8,36.7,90,77,68,30.04,29.92,12,5,17,0.26
2013-4-9,75.2,53.8,40.3,58.9,46.0,37.6,90,76,55,30.07,29.88,8,3,10,0.01
2013-4-10,51.1,45.3,41.0,46.4,41.5,37.7,91,86,82,29.99,29.89,8,5,12,0.26
2013-4-11,44.2,42.1,40.3,41.5,39.5,37.9,92,90,87,29.95,29.65,12,5,19,0.98
2013-4-12,40.8,40.6,40.5,38.7,38.4,38.3,92,92,92,29.66,29.64,4,3,7,0.00
2013-4-14,56.7,55.8,55.2,44.9,44.0,43.3,65,65,64,29.92,29.89,11,6,18,1.00
2013-4-15,67.8,58.4,45.3,55.6,48.2,42.6,91,70,56,30.09,29.88,11,4,21,0.65
2013-4-16,52.2,45.8,41.9,42.9,36.3,28.3,92,71,43,30.36,30.06,9,3,15,0.08
2013-4-17,55.9,47.7,41.7,43.4,38.0,32.0,89,70,55,30.39,30.00,26,5,42,0.52
2013-4-18,70.5,58.6,46.8,63.4,54.4,43.4,93,86,74,30.00,29.58,14,4,24,0.91
2013-4-19,50.4,39.2,33.4,46.4,30.9,27.4,89,72,63,29.96,29.61,21,10,29,0.07
2013-4-20,45.0,36.3,27.3,28.3,18.9,12.9,75,50,28,30.55,29.96,16,6,24,0.01
2013-4-21,36.0,27.3,25.3,18.9,16.9,14.9,72,65,45,30.66,30.55,3,1,8,0.00
2013-4-23,68.9,51.8,37.9,51.6,44.4,37.7,99,79,48,29.92,29.71,10,4,16,0.51
2013-4-24,49.3,40.0,35.8,37.5,30.8,17.9,99,72,32,30.05,29.79,13,4,19,0.02
2013-4-25,51.8,43.7,34.7,38.2,32.6,27.3,84,66,45,30.26,29.99,17,5,24,0.01
2013-4-26,69.6,52.1,33.1,42.2,34.4,26.0,81,54,33,30.31,30.19,8,3,15,0.00
2013-4-27,73.6,65.6,51.4,45.8,38.6,30.8,65,39,22,30.24,29.71,8,2,14,0.00
2013-4-28,60.4,55.4,48.6,54.1,49.9,45.2,94,82,58,29.71,29.51,5,1,9,0.06
2013-4-29,78.1,60.9,42.3,55.4,50.4,42.0,99,72,43,29.61,29.52,11,3,16,0.01
2013-4-30,87.1,71.0,56.8,61.4,56.1,51.2,87,61,39,29.66,29.53,10,4,20,0.08
2013-5-1,89.6,75.9,62.8,60.6,55.9,52.4,75,52,31,29.84,29.66,8,2,17,0.00
2013-5-2,70.0,59.4,42.4,56.1,49.6,39.4,93,71,55,29.86,29.77,12,3,16,0.00
2013-5-3,69.3,54.5,41.5,55.3,48.5,39.9,98,81,57,29.80,29.63,10,2,12,0.04
2013-5-4,75.6,65.9,58.5,54.6,45.2,35.3,83,49,25,29.71,29.64,10,3,16,0.00
2013-5-5,77.5,63.8,50.4,50.5,45.0,41.1,73,52,32,29.71,29.64,9,2,15,0.00
2013-5-6,80.4,64.5,53.4,49.2,41.2,28.0,75,46,15,29.70,29.63,9,2,13,0.00
2013-5-7,80.8,62.8,45.1,54.3,46.6,40.7,93,59,34,29.72,29.66,8,1,17,0.00
2013-5-8,79.5,66.3,50.7,57.4,48.6,40.7,90,57,26,29.72,29.65,8,2,18,0.00
2013-5-9,86.7,64.3,46.6,61.2,51.9,44.7,96,70,27,29.66,29.55,7,1,10,0.18
2013-5-10,61.3,51.9,43.2,60.6,50.7,42.6,99,96,86,29.61,29.43,10,3,17,0.11
2013-5-11,59.4,45.8,36.0,52.2,41.6,32.7,99,86,63,29.66,29.49,17,3,31,0.07
2013-5-12,53.2,42.9,33.4,36.9,31.1,26.9,95,64,42,29.80,29.65,14,5,25,0.00
2013-5-13,64.8,48.3,30.6,40.7,29.3,20.9,97,54,20,29.86,29.74,9,2,16,0.02
2013-5-14,86.4,67.2,50.5,57.8,44.6,25.0,66,44,35,29.74,29.34,10,3,18,0.00
2013-5-15,81.5,76.5,67.1,60.1,52.7,46.5,58,44,31,29.52,29.30,12,5,21,0.00
2013-5-19,93.4,85.6,75.6,64.3,62.5,60.7,65,47,37,29.92,29.80,7,2,11,0.00
2013-5-20,92.7,81.1,70.7,69.1,65.0,57.1,87,60,33,29.86,29.75,8,3,17,0.00
2013-5-21,87.8,73.8,63.1,67.1,64.0,60.2,99,74,47,29.83,29.70,15,2,24,0.45
2013-5-22,75.2,68.4,61.0,68.7,63.3,58.2,95,84,65,29.74,29.67,9,2,14,0.40
2013-5-23,61.0,48.7,41.5,58.0,46.9,39.1,99,94,75,30.22,29.74,9,4,23,0.05
2013-5-24,59.4,47.8,37.4,41.0,37.2,32.3,98,69,40,30.42,30.22,10,3,15,0.00
2013-5-25,66.6,50.8,36.0,48.5,41.4,33.6,99,73,39,30.40,30.28,7,1,10,0.00
2013-5-26,77.2,59.0,39.6,48.8,42.4,38.3,99,60,27,30.31,30.17,5,1,11,0.00
2013-5-27,60.8,57.2,52.9,56.5,50.9,38.8,97,82,44,30.19,29.91,10,3,17,0.21
2013-5-28,82.0,69.9,56.1,69.6,64.1,55.0,99,83,64,29.92,29.79,14,2,21,0.30
2013-5-29,91.6,74.3,62.6,71.0,64.6,60.0,96,73,48,30.00,29.82,7,2,14,0.07
2013-5-30,90.1,78.7,70.9,69.5,65.3,60.3,86,64,43,30.00,29.89,8,2,21,0.08
2013-5-31,79.7,73.4,65.7,67.4,65.4,62.9,95,77,63,29.95,29.77,8,2,17,0.18
2013-6-3,50.7,48.2,46.6,43.6,42.9,42.1,86,82,74,29.93,29.92,0,0,0,0.00
2013-6-4,82.2,60.7,43.0,53.8,47.4,41.6,99,67,31,30.02,29.92,5,1,9,0.00
2013-6-5,81.3,67.5,54.1,52.9,47.9,44.3,90,52,31,29.96,29.77,5,2,11,0.00
2013-6-6,67.1,61.3,59.0,51.9,49.7,46.2,74,66,52,29.79,29.72,4,2,8,0.00
2013-6-11,81.9,71.3,67.8,63.7,62.6,60.8,86,75,52,29.95,29.91,2,0,5,0.12
2013-6-12,91.9,75.7,64.0,74.4,68.2,62.0,96,79,55,29.99,29.67,13,1,21,0.22
2013-6-13,73.2,65.5,57.0,63.8,58.3,52.7,98,79,59,30.08,29.65,11,3,21,0.15
2013-6-14,81.3,64.5,51.8,61.7,54.9,50.7,98,74,45,30.19,30.07,9,2,14,0.00
2013-6-15,78.1,66.7,54.3,66.9,60.2,52.8,98,81,59,30.16,29.97,5,1,10,0.05
2013-6-16,87.4,74.7,64.8,67.2,62.8,53.8,93,69,33,30.00,29.93,12,2,17,0.04
2013-6-17,91.2,75.7,62.4,67.0,59.0,47.9,94,63,24,30.03,29.93,8,2,14,0.15
2013-6-18,82.6,68.1,58.8,62.9,58.5,49.4,98,74,44,30.13,29.95,7,2,11,0.00
2013-6-19,82.8,66.6,51.1,50.7,47.4,40.0,87,55,24,30.24,30.13,5,1,10,0.00
2013-6-20,92.7,72.6,51.6,63.4,56.2,49.1,96,62,30,30.26,30.18,4,0,8,0.00
2013-6-21,90.5,75.7,66.6,68.2,64.0,61.1,95,70,39,30.23,30.06,15,2,21,0.14
2013-6-22,89.1,77.2,66.4,73.2,69.1,64.4,95,77,58,30.17,30.05,6,2,11,0.00
2013-6-23,94.6,79.0,65.3,70.8,66.6,63.2,95,68,43,30.14,30.03,7,2,14,0.00
2013-6-24,90.9,77.6,67.3,70.8,66.5,64.2,91,71,43,30.15,29.96,8,2,21,0.07
2013-6-25,91.9,75.2,67.6,75.1,68.8,63.9,97,81,54,30.06,29.89,5,2,14,0.24
2013-6-26,88.7,74.5,65.8,72.3,67.6,65.1,98,81,50,29.97,29.81,8,2,13,0.38
2013-6-27,89.2,74.2,64.2,72.3,67.9,63.4,98,82,53,29.86,29.75,6,2,11,0.15
2013-6-28,75.2,70.3,64.2,67.4,64.6,63.4,99,83,69,29.78,29.72,5,1,8,0.01
2013-6-29,72.7,72.7,72.7,64.3,64.3,64.3,75,75,75,29.74,29.74,2,2,6,0.01
2013-6-30,72.7,72.7,72.7,64.3,64.3,64.3,75,75,75,29.74,29.74,2,2,6,0.01
2013-7-1,72.7,72.7,72.7,64.3,64.3,64.3,75,75,75,29.74,29.74,2,2,6,0.01
2013-7-2,75.2,68.3,60.3,66.1,62.9,59.7,99,84,70,30.13,29.72,4,1,8,0.85
2013-7-3,82.9,69.2,60.8,68.5,63.6,60.2,99,84,54,30.16,30.07,6,1,10,0.00
2013-7-4,85.1,71.7,57.9,68.0,62.3,57.7,99,75,47,30.21,30.14,4,1,8,0.00
2013-7-5,89.2,74.3,59.7,69.0,63.7,59.2,98,73,43,30.20,30.11,4,1,7,0.00
2013-7-6,88.5,75.7,67.5,70.3,67.7,64.9,93,77,50,30.17,30.07,4,1,9,0.00
2013-7-7,78.4,72.1,71.4,71.5,67.4,62.2,86,85,61,30.11,29.77,2,0,4,0.00
2013-7-8,85.1,77.1,72.5,73.1,70.7,66.5,90,81,59,29.99,29.89,7,2,13,0.02
2013-7-9,92.3,78.6,68.0,77.0,72.2,66.5,96,82,58,29.94,29.81,8,1,16,0.00
2013-7-10,80.8,75.0,60.6,75.0,66.7,56.7,94,77,48,29.99,29.77,8,1,12,0.00
2013-7-11,83.5,69.1,57.0,68.7,57.0,52.6,97,69,37,30.09,29.98,7,1,14,0.00
2013-7-12,86.9,70.7,53.6,68.1,59.2,52.8,98,71,40,30.15,30.06,5,1,10,0.00
2013-7-13,90.1,74.0,56.7,67.6,61.8,56.1,99,70,43,30.17,30.11,4,1,8,0.00
2013-7-14,95.4,79.4,65.8,70.7,66.7,63.1,92,68,44,30.22,30.17,5,2,9,0.00
2013-7-15,94.5,79.7,73.9,74.8,72.9,68.7,96,82,44,30.22,29.92,6,0,8,0.12
2013-7-16,98.2,84.0,72.3,77.1,73.0,70.5,97,73,43,30.02,29.95,4,1,8,0.00
2013-7-17,96.6,84.2,73.2,75.1,72.3,69.5,90,70,43,30.02,29.87,5,1,8,0.00
2013-7-18,99.1,86.2,74.1,76.4,73.3,70.9,92,68,44,29.89,29.67,6,1,8,0.00
2013-7-19,97.9,86.5,77.2,74.4,71.7,68.7,85,63,43,29.68,29.47,13,3,17,0.00
2013-7-20,91.9,81.4,69.4,72.9,66.3,59.3,90,63,36,29.63,29.48,11,2,14,0.00
2013-7-21,97.3,77.4,63.0,69.2,64.6,59.7,94,68,34,29.68,29.56,5,1,10,0.39
2013-7-22,93.7,76.2,66.2,73.1,66.6,64.3,95,74,44,29.62,29.45,7,2,13,0.02
2013-7-23,77.2,71.9,60.1,69.2,62.0,51.4,85,72,51,29.63,29.39,12,4,19,0.00
2013-7-24,77.5,63.2,49.3,55.3,50.6,47.1,94,66,38,29.75,29.64,5,1,10,0.00
2013-7-25,55.8,52.8,51.1,52.5,51.3,50.2,98,95,88,29.77,29.73,1,0,2,0.00
2013-7-27,64.9,60.7,57.4,57.8,50.7,47.1,85,70,63,29.94,29.91,11,3,17,0.15
2013-7-28,69.6,60.3,54.9,54.4,50.9,48.3,90,72,53,30.04,29.89,14,5,24,0.00
2013-7-29,75.9,65.0,53.6,58.1,54.8,51.1,92,70,49,30.24,30.03,8,2,14,0.00
2013-7-30,81.5,65.9,50.9,62.8,56.7,50.4,99,75,45,30.25,30.14,8,1,11,0.21
2013-7-31,69.4,66.8,62.8,67.5,64.6,61.0,97,93,85,30.15,29.99,5,1,8,0.04
2013-8-1,84.9,69.9,58.5,67.7,60.0,52.2,99,75,35,30.02,29.97,9,2,14,0.00
2013-8-2,82.6,67.9,57.9,68.8,61.4,53.0,98,81,60,30.01,29.88,11,3,18,0.59
2013-8-3,80.6,70.4,56.8,67.9,59.1,49.8,99,72,35,30.14,29.96,5,1,12,0.00
2013-8-4,79.3,65.4,54.7,59.4,54.5,51.7,98,72,40,30.25,30.14,6,1,14,0.00
2013-8-5,77.0,63.9,51.3,62.9,56.1,50.7,98,77,56,30.18,29.97,9,1,13,0.02
2013-8-6,85.5,70.8,63.0,70.6,65.9,60.8,99,85,60,29.98,29.91,9,3,12,0.46
2013-8-7,84.6,73.2,65.7,74.1,68.3,63.3,96,85,63,29.99,29.85,10,2,17,0.14
2013-8-8,83.3,69.8,61.5,64.2,60.2,56.9,96,74,46,30.06,29.97,4,1,8,0.00
2013-8-9,81.7,70.0,57.4,65.8,60.0,54.6,97,73,43,30.06,30.01,7,1,11,0.00
2013-8-10,87.6,73.2,63.5,65.9,59.6,52.6,94,66,33,30.17,30.06,4,1,8,0.00
2013-8-11,84.7,69.4,57.2,63.0,57.7,54.4,94,69,41,30.18,30.08,8,1,13,0.00
2013-8-12,84.9,72.6,65.5,68.2,64.8,60.0,98,78,52,30.10,29.90,11,3,15,0.21
2013-8-13,72.3,63.5,55.0,65.8,53.7,46.7,99,73,42,30.17,29.95,7,2,14,0.01
2013-8-14,73.8,59.7,46.4,52.1,48.0,42.8,95,68,36,30.25,30.17,7,1,14,0.00
2013-8-15,79.9,61.2,46.9,56.3,51.3,46.7,99,74,38,30.22,30.14,8,2,14,0.00
2013-8-16,86.5,66.3,52.2,65.5,54.6,49.0,99,71,28,30.24,30.17,5,1,10,0.00
2013-8-17,87.3,68.0,53.4,62.5,55.7,51.9,99,70,34,30.29,30.21,6,1,14,0.00
2013-8-18,86.9,69.0,54.5,63.0,56.9,53.2,98,70,35,30.26,30.16,4,1,10,0.00
2013-8-19,86.0,69.7,56.5,65.7,59.3,55.6,98,74,38,30.17,30.09,7,1,14,0.00
2013-8-20,88.2,74.6,62.6,66.8,63.7,59.8,92,71,44,30.19,30.11,9,2,14,0.00
2013-8-21,91.0,78.2,66.7,69.0,65.6,62.7,93,67,42,30.16,30.02,10,3,15,0.00
2013-8-22,77.7,71.1,66.2,70.4,67.2,64.6,97,88,69,30.17,30.04,13,4,23,0.26
2013-8-23,91.8,72.5,59.7,67.2,60.2,50.9,99,71,29,30.23,30.13,4,1,7,0.00
2013-8-24,88.5,69.0,54.3,61.3,56.2,53.5,99,70,32,30.33,30.22,8,1,11,0.00
2013-8-25,89.4,73.8,58.6,66.4,61.6,55.7,94,68,45,30.32,30.19,9,3,15,0.00
2013-8-26,88.9,78.3,68.7,73.8,66.6,60.8,82,68,53,30.23,30.06,11,5,14,0.00
2013-8-27,94.1,81.9,75.0,74.2,71.3,69.2,85,71,47,30.06,29.89,11,5,16,0.00
2013-8-28,88.2,78.8,68.5,73.8,70.3,66.0,96,77,55,30.08,29.88,17,4,21,0.00
2013-8-29,92.7,75.1,63.0,72.2,66.7,62.1,99,79,45,30.13,30.03,8,1,11,0.00
2013-8-30,95.4,79.2,67.3,73.9,69.5,66.1,97,75,47,30.04,29.79,11,4,16,0.00
2013-8-31,88.9,74.1,67.5,72.0,67.8,65.5,96,81,51,29.91,29.82,4,1,8,0.00
2013-9-1,86.5,74.6,68.2,72.3,68.6,66.0,97,83,54,29.87,29.78,10,2,14,0.00
2013-9-2,78.1,70.1,60.4,70.0,62.0,53.6,98,77,53,30.02,29.80,7,2,14,0.00
2013-9-3,78.3,64.1,54.5,58.5,55.1,52.1,97,74,48,30.12,30.01,8,1,13,0.00
2013-9-4,84.2,66.7,53.2,63.2,56.4,52.7,99,73,38,30.16,30.08,12,3,18,0.00
2013-9-5,59.9,59.7,59.4,56.3,56.1,56.0,89,88,87,30.16,30.15,1,0,3,0.00
2013-9-6,74.3,72.1,70.9,62.7,61.5,60.2,71,69,67,29.93,29.90,3,1,6,0.00
2013-9-7,87.3,73.4,65.5,70.4,63.0,56.2,96,72,38,29.91,29.76,10,3,16,0.04
2013-9-8,84.2,71.6,63.7,67.7,64.8,62.5,99,81,51,29.90,29.80,5,1,12,0.00
2013-9-9,95.7,77.9,64.6,73.1,65.8,57.0,84,68,46,29.87,29.70,8,3,14,0.00
2013-9-10,96.1,84.7,76.3,72.0,66.7,62.3,78,58,34,29.88,29.74,15,6,24,0.00
2013-9-11,94.1,79.5,70.0,70.6,67.7,64.2,86,68,45,29.92,29.83,11,4,18,0.00
2013-9-12,83.5,71.6,60.6,68.3,58.8,47.0,94,67,30,29.90,29.76,7,2,11,0.00
2013-9-13,70.3,58.4,45.5,49.8,44.4,40.2,92,62,35,29.99,29.90,8,2,14,0.00
2013-9-14,74.8,56.1,40.1,50.2,42.2,34.6,99,66,25,30.04,29.91,7,2,11,0.00
2013-9-15,60.1,56.0,49.1,56.8,49.8,40.5,99,81,56,29.99,29.88,4,1,8,0.01
2013-9-16,73.0,59.4,47.7,55.7,50.9,45.7,99,77,38,30.19,29.99,4,1,11,0.00
2013-9-17,76.1,57.7,45.1,52.0,47.8,44.2,97,74,36,30.21,30.02,7,1,11,0.00
2013-9-18,85.6,67.0,54.9,63.7,55.1,48.8,87,68,44,30.01,29.81,8,2,20,0.00
2013-9-19,78.4,69.2,66.2,70.2,66.9,63.5,99,93,70,29.89,29.69,8,3,14,0.38
2013-9-20,76.5,71.6,63.9,71.3,65.9,55.2,93,82,71,29.71,29.62,12,6,21,0.00
2013-9-21,67.3,61.3,57.7,57.3,52.0,46.1,93,72,53,29.76,29.61,8,3,17,0.07
2013-9-22,70.7,56.7,45.7,50.7,46.0,42.5,96,70,38,29.91,29.76,5,1,10,0.00
2013-9-23,77.5,55.3,40.6,48.8,44.9,40.2,99,73,35,29.99,29.91,6,1,11,0.00
2013-9-24,80.1,58.7,46.0,50.2,46.5,43.0,95,69,28,29.95,29.80,5,1,11,0.00
2013-9-25,84.0,59.9,45.3,55.5,49.5,44.5,99,74,28,29.84,29.77,8,1,10,0.00
2013-9-26,88.5,61.8,44.8,57.7,49.3,40.3,99,73,22,29.95,29.82,5,1,11,0.00
2013-9-27,87.4,65.8,50.5,54.6,49.8,44.5,81,60,28,30.05,29.95,8,1,13,0.00
2013-9-28,87.4,68.7,54.9,57.9,54.4,51.8,92,64,33,29.99,29.80,9,3,20,0.00
2013-9-29,72.1,63.5,49.6,62.5,54.8,49.2,99,76,46,29.89,29.78,12,2,16,0.28
2013-9-30,80.4,60.2,46.2,56.4,50.5,45.4,99,75,36,29.86,29.76,8,1,12,0.00
2013-10-1,81.9,67.1,59.9,64.7,61.2,53.7,98,83,52,29.85,29.76,10,4,19,0.00
2013-10-2,91.0,67.1,60.1,66.4,59.1,40.5,99,80,23,29.95,29.81,8,2,11,0.00
2013-10-3,67.3,66.9,66.4,65.0,64.3,63.3,94,91,87,29.93,29.91,7,4,13,1.09
2013-10-4,82.4,71.5,64.8,70.1,66.6,62.9,96,85,65,30.00,29.90,8,2,14,0.00
2013-10-5,83.7,71.6,65.7,73.0,68.4,64.8,99,90,69,29.97,29.80,9,3,17,0.33
2013-10-6,67.1,59.1,49.8,66.5,54.5,41.7,99,86,53,29.81,29.69,17,5,21,0.44
2013-10-7,65.5,52.6,46.8,50.8,45.1,41.2,94,77,47,30.08,29.73,15,5,24,0.01
2013-10-8,82.2,59.5,46.0,53.2,47.1,42.8,94,68,27,30.20,30.08,8,2,12,0.00
2013-10-9,81.3,59.6,46.4,49.8,45.7,39.8,90,66,23,30.26,30.15,7,1,10,0.00
2013-10-10,84.9,60.4,45.5,55.1,48.4,44.1,98,70,30,30.18,30.07,6,1,10,0.00
2013-10-11,51.1,50.6,50.0,50.3,49.7,48.9,97,97,96,30.07,30.06,0,0,0,0.00
2013-10-15,64.8,58.8,49.3,62.1,54.9,44.8,98,87,75,29.92,29.64,10,4,14,0.30
2013-10-16,61.7,52.4,47.7,59.7,47.6,44.3,94,84,73,29.93,29.67,9,5,17,0.18
2013-10-17,51.8,49.7,44.2,49.9,47.6,41.7,98,93,76,29.93,29.80,12,5,19,0.37
2013-10-18,55.9,46.8,41.0,46.7,42.4,39.1,96,85,67,29.95,29.85,14,5,21,0.00
2013-10-19,55.0,47.2,41.5,46.4,39.7,31.6,99,77,43,29.93,29.78,18,5,29,0.27
2013-10-20,63.3,51.9,41.4,45.4,40.9,37.5,88,68,44,29.91,29.76,14,6,25,0.00
2013-10-21,57.2,48.7,42.3,49.6,40.5,26.4,99,74,53,29.94,29.81,18,7,25,0.20
2013-10-22,46.8,40.8,36.7,36.1,31.1,26.3,95,69,52,29.96,29.89,14,6,24,0.05
2013-10-23,46.2,38.4,33.8,39.4,33.4,25.4,99,84,53,29.98,29.84,15,3,23,0.27
2013-10-24,43.0,37.9,33.8,37.1,31.6,27.9,95,79,56,30.25,29.95,11,3,19,0.39
2013-10-25,50.0,39.9,31.6,37.7,30.4,26.6,99,72,43,30.36,30.09,14,4,21,0.25
2013-10-26,52.2,46.8,42.6,39.5,32.1,26.9,64,56,49,30.09,29.83,21,9,28,0.00
2013-10-27,57.2,45.6,34.2,36.5,32.4,28.0,88,62,37,30.06,29.98,15,4,19,0.00
2013-10-28,66.6,45.6,31.5,41.1,34.3,27.7,90,68,34,30.35,30.03,5,1,10,0.00
2013-10-29,61.9,44.6,33.8,42.6,36.5,30.1,92,75,44,30.38,30.18,7,2,11,0.00
2013-10-30,62.2,53.1,41.0,58.0,48.2,38.3,99,84,65,30.17,29.84,9,2,14,0.87
2013-10-31,63.7,60.5,52.5,62.8,59.7,51.7,99,97,91,29.84,29.20,22,8,30,1.80
2013-11-1,52.3,47.5,45.5,51.5,42.9,38.2,97,85,66,29.71,29.29,24,11,33,0.34
2013-11-2,50.4,45.5,41.4,45.2,41.9,37.1,97,88,63,30.09,29.70,11,3,19,0.32
2013-11-3,54.0,42.9,34.7,39.5,36.8,33.9,99,81,53,30.32,30.08,8,2,12,0.00
2013-11-4,53.6,47.2,39.6,41.8,37.1,34.2,85,69,52,30.35,30.17,15,4,28,0.00
2013-11-5,56.1,53.5,50.9,49.9,45.1,41.8,93,73,64,30.30,30.05,11,4,21,0.00
2013-11-6,59.0,51.5,42.6,54.5,47.0,32.4,97,85,60,30.08,29.80,17,8,28,0.81
2013-11-7,45.7,41.6,39.0,33.5,30.4,26.0,75,65,47,30.21,30.08,17,7,23,0.01
2013-11-8,50.7,42.1,35.2,36.1,28.8,24.3,92,60,42,30.30,30.07,14,4,18,0.00
2013-11-9,58.5,50.7,45.0,42.8,36.4,28.7,70,58,48,30.07,29.87,25,13,35,0.00
2013-11-10,49.1,42.7,36.9,33.3,30.4,25.3,77,62,48,30.30,30.01,22,8,36,0.02
2013-11-11,47.5,38.2,27.0,39.4,31.2,22.4,95,77,61,30.39,30.07,14,5,21,0.22
2013-11-12,37.2,28.6,24.4,27.2,20.9,14.7,89,73,49,30.61,30.39,4,0,8,0.04
2013-11-13,36.5,28.4,19.2,20.2,16.7,11.7,78,62,43,30.55,30.17,18,7,30,0.00
2013-11-14,49.1,38.8,30.4,28.1,21.9,16.8,59,51,41,30.19,29.96,17,10,26,0.00
2013-11-15,48.7,44.2,39.2,34.4,29.2,25.2,61,56,47,30.01,29.96,11,6,18,0.00
2013-11-16,59.2,50.9,43.7,55.6,44.8,30.7,91,80,58,29.99,29.66,17,6,31,0.06
2013-11-17,65.1,58.6,46.2,61.4,53.3,37.3,92,83,67,29.67,29.22,34,13,53,0.38
2013-11-18,46.0,39.8,35.4,37.5,29.4,22.3,74,66,56,30.19,29.66,25,12,34,0.00
2013-11-19,50.5,38.8,33.1,27.5,24.1,20.9,65,56,35,30.35,30.19,6,2,11,0.00
2013-11-20,38.5,32.1,30.6,25.8,22.9,22.0,74,69,57,30.33,30.28,10,3,17,0.00
2013-11-21,46.0,46.0,45.9,45.2,45.1,44.8,97,97,96,29.93,29.91,4,1,6,0.38
2013-11-22,46.4,38.9,27.5,45.6,34.6,22.5,98,85,67,30.18,29.91,9,4,19,0.05
2013-11-23,32.9,27.2,21.2,25.6,14.1,4.4,85,58,43,30.34,30.09,14,6,26,0.01
2013-11-24,27.1,22.8,20.1,14.7,5.4,-4.3,76,48,28,30.39,30.14,15,6,22,0.00
2013-11-25,31.5,26.5,19.8,24.0,12.8,1.4,80,57,42,30.14,29.83,15,9,26,0.00
2013-11-26,35.6,31.1,26.1,26.3,22.0,13.3,83,69,46,29.84,29.71,11,5,17,0.00
2013-11-27,31.6,25.4,20.8,22.5,18.1,14.7,84,74,55,29.97,29.77,13,4,26,0.02
2013-11-28,31.1,26.5,22.3,19.1,12.9,6.7,81,56,44,30.18,29.95,11,4,17,0.00
2013-11-29,43.5,31.3,26.1,22.0,16.9,12.4,65,55,36,30.36,30.19,8,2,14,0.00
2013-11-30,51.8,38.7,30.9,29.9,24.3,18.5,64,56,42,30.20,29.82,12,5,20,0.00
2013-12-1,46.8,36.7,28.8,33.1,27.1,22.9,82,69,49,29.84,29.74,5,2,11,0.00
2013-12-2,31.3,29.3,27.5,27.0,24.9,22.4,86,83,79,29.74,29.68,2,0,3,0.00
2013-12-3,48.9,48.7,48.4,46.7,46.5,46.3,93,92,91,29.97,29.92,9,4,14,0.18
2013-12-4,59.4,51.6,46.2,55.0,48.7,43.9,96,90,79,29.97,29.76,14,5,21,0.00
2013-12-5,57.7,35.1,28.2,52.8,26.2,16.2,84,70,58,30.33,29.79,21,12,35,0.01
2013-12-6,28.2,25.9,23.7,17.0,13.9,9.3,64,60,53,30.19,29.95,10,4,14,0.00
2013-12-7,23.7,20.1,14.0,11.2,8.0,3.8,69,59,51,30.39,30.19,11,4,16,0.00
2013-12-8,25.5,20.9,14.0,20.8,11.9,5.8,84,68,54,30.32,29.69,8,3,17,0.00
2013-12-9,28.2,23.3,15.1,21.8,13.6,1.5,84,66,47,29.93,29.65,21,12,31,0.18
2013-12-10,23.9,15.5,2.3,9.9,2.5,-10.0,64,56,43,30.01,29.75,26,11,35,0.32
2013-12-11,23.0,18.1,13.1,18.0,8.4,-0.6,82,66,48,30.23,29.99,14,7,23,0.00
2013-12-12,22.1,12.6,0.3,8.5,-2.7,-16.5,61,50,32,30.24,29.96,24,9,28,0.20
2013-12-13,37.0,24.2,14.5,18.9,11.8,4.6,67,59,44,29.96,29.88,8,4,14,0.00
2013-12-14,27.3,23.6,20.3,21.1,18.0,14.9,84,79,67,29.91,29.63,8,4,18,0.00
2013-12-15,28.6,21.4,18.5,21.8,11.3,3.5,78,65,51,29.83,29.63,16,10,26,0.02
2013-12-16,25.5,17.9,7.3,11.7,6.2,-1.5,74,60,44,29.90,29.75,7,2,12,0.00
2013-12-17,32.9,25.6,18.1,25.0,18.1,11.0,84,73,58,29.78,29.67,14,8,21,0.00
2013-12-18,34.9,28.8,22.5,20.4,13.9,6.5,67,54,36,29.92,29.62,19,9,30,0.00
2013-12-19,43.9,39.1,35.2,34.8,31.4,20.7,89,74,55,29.71,29.59,14,5,22,0.04
2013-12-20,42.4,37.6,33.8,41.5,36.1,32.0,98,94,85,29.59,29.47,4,1,7,0.34
2013-12-21,35.8,34.2,32.7,34.0,32.5,30.7,94,93,92,29.93,29.51,8,2,12,0.40
2013-12-22,36.0,33.2,31.1,32.4,30.5,27.1,93,89,81,30.17,29.65,14,5,20,0.08
2013-12-23,30.9,23.2,9.5,27.0,15.1,1.5,85,71,55,30.52,30.17,18,11,27,0.00
2013-12-24,21.9,10.6,3.2,6.5,1.0,-5.2,71,65,49,30.66,30.50,14,6,21,0.00
2013-12-25,26.6,22.5,15.8,22.6,13.9,5.6,85,69,55,30.56,30.21,14,6,21,0.00
2013-12-26,33.8,27.1,23.9,24.2,17.9,12.0,85,68,55,30.41,30.19,17,9,25,0.00
2013-12-27,43.7,37.1,31.5,30.4,27.6,23.7,80,68,52,30.43,30.22,17,7,24,0.00
2013-12-28,52.0,43.0,34.9,33.6,30.4,26.8,73,61,48,30.25,30.01,17,9,24,0.00
2013-12-29,41.4,32.7,21.7,31.7,24.3,11.8,85,71,62,30.23,29.90,13,6,21,0.00
2013-12-30,21.4,17.4,13.3,11.5,6.0,2.4,74,60,50,30.41,30.23,13,6,21,0.00
2013-12-31,15.4,14.1,12.7,8.0,6.3,3.8,75,71,60,30.46,30.26,14,7,20,0.00
2014-1-1,17.1,14.8,12.0,9.4,7.3,3.9,75,72,68,30.44,30.30,8,4,13,0.00
2014-1-2,19.0,12.0,-2.7,6.7,-1.0,-15.5,73,56,30,30.48,30.22,11,5,17,0.00